createdAt,value
2023-05-11T00:02:25.164Z,3.80
2023-05-11T00:04:52.809Z,3.23
2023-05-11T00:07:19.512Z,3.97
2023-05-11T00:09:46.494Z,3.07
2023-05-11T00:12:14.174Z,3.07
2023-05-11T00:14:41.299Z,3.80
2023-05-11T00:17:08.023Z,3.37
2023-05-11T00:19:34.964Z,3.60
2023-05-11T00:22:01.883Z,3.47
2023-05-11T00:24:29.038Z,3.63
2023-05-11T00:26:55.905Z,3.30
2023-05-11T00:29:22.945Z,3.50
2023-05-11T00:31:50.195Z,3.67
2023-05-11T00:34:17.938Z,3.50
2023-05-11T00:36:45.447Z,3.30
2023-05-11T00:39:12.570Z,3.23
2023-05-11T00:41:40.442Z,3.30
2023-05-11T00:44:07.517Z,4.47
2023-05-11T00:46:34.416Z,4.10
2023-05-11T00:49:02.276Z,3.60
2023-05-11T00:51:29.142Z,5.50
2023-05-11T00:53:56.169Z,6.27
2023-05-11T00:56:22.994Z,4.93
2023-05-11T00:58:50.364Z,4.43
2023-05-11T01:01:18.725Z,3.23
2023-05-11T01:03:47.139Z,4.53
2023-05-11T01:06:31.869Z,4.53
2023-05-11T01:09:34.387Z,4.77
2023-05-11T01:12:13.530Z,4.00
2023-05-11T01:14:59.755Z,3.93
2023-05-11T01:17:38.105Z,3.57
2023-05-11T01:20:12.656Z,4.55
2023-05-11T01:22:56.158Z,3.63
2023-05-11T01:25:30.259Z,3.30
2023-05-11T01:28:13.023Z,3.65
2023-05-11T01:30:49.736Z,3.20
2023-05-11T01:33:21.701Z,3.63
2023-05-11T01:35:53.599Z,3.33
2023-05-11T01:38:22.346Z,3.27
2023-05-11T01:40:55.987Z,3.60
2023-05-11T01:43:26.319Z,3.47
2023-05-11T01:45:58.814Z,3.17
2023-05-11T01:48:29.422Z,3.43
2023-05-11T01:51:00.772Z,3.23
2023-05-11T01:53:32.128Z,3.70
2023-05-11T01:56:00.696Z,3.37
2023-05-11T01:58:29.032Z,3.47
2023-05-11T02:00:57.480Z,3.50
2023-05-11T02:03:25.937Z,3.23
2023-05-11T02:05:54.206Z,3.60
2023-05-11T02:08:22.244Z,3.83
2023-05-11T02:10:50.627Z,3.83
2023-05-11T02:13:19.586Z,3.93
2023-05-11T02:15:50.864Z,3.57
2023-05-11T02:18:19.784Z,3.70
2023-05-11T02:20:48.125Z,4.20
2023-05-11T02:23:17.276Z,3.77
2023-05-11T02:25:44.859Z,4.23
2023-05-11T02:28:11.996Z,3.70
2023-05-11T02:30:47.927Z,4.30
2023-05-11T02:33:20.181Z,3.80
2023-05-11T02:35:48.192Z,4.57
2023-05-11T02:38:16.507Z,4.53
2023-05-11T02:40:48.321Z,4.87
2023-05-11T02:43:23.623Z,5.00
2023-05-11T02:46:02.177Z,5.00
2023-05-11T02:48:34.595Z,4.70
2023-05-11T02:51:06.135Z,4.80
2023-05-11T02:53:40.014Z,4.77
2023-05-11T02:56:08.337Z,4.50
2023-05-11T02:58:36.502Z,4.93
2023-05-11T03:01:36.304Z,4.37
2023-05-11T03:04:06.725Z,4.40
2023-05-11T03:06:34.142Z,5.00
2023-05-11T03:09:03.071Z,4.87
2023-05-11T03:11:32.634Z,4.50
2023-05-11T03:14:01.753Z,4.43
2023-05-11T03:16:29.922Z,4.57
2023-05-11T03:18:58.085Z,4.60
2023-05-11T03:21:26.417Z,4.67
2023-05-11T03:23:54.231Z,4.57
2023-05-11T03:26:22.109Z,4.70
2023-05-11T03:28:53.059Z,4.80
2023-05-11T03:31:20.321Z,5.20
2023-05-11T03:33:47.435Z,5.83
2023-05-11T03:36:15.763Z,4.83
2023-05-11T03:38:46.397Z,5.03
2023-05-11T03:41:17.589Z,5.33
2023-05-11T03:43:51.730Z,6.20
2023-05-11T03:46:22.777Z,5.93
2023-05-11T03:48:50.717Z,6.37
2023-05-11T03:51:21.837Z,5.90
2023-05-11T03:53:48.857Z,5.90
2023-05-11T03:56:16.145Z,5.37
2023-05-11T03:58:42.944Z,5.70
2023-05-11T04:01:12.745Z,5.83
2023-05-11T04:03:53.404Z,6.37
2023-05-11T04:06:21.830Z,6.53
2023-05-11T04:08:56.764Z,7.53
2023-05-11T04:11:23.831Z,7.37
2023-05-11T04:13:50.604Z,5.73
2023-05-11T04:16:17.633Z,6.57
2023-05-11T04:18:44.477Z,5.60
2023-05-11T04:21:11.690Z,4.20
2023-05-11T04:23:38.767Z,4.13
2023-05-11T04:26:06.025Z,4.07
2023-05-11T04:28:32.788Z,4.47
2023-05-11T04:30:59.805Z,4.67
2023-05-11T04:33:26.694Z,3.60
2023-05-11T04:35:55.907Z,4.00
2023-05-11T04:38:24.697Z,4.33
2023-05-11T04:40:51.688Z,4.60
2023-05-11T04:43:19.655Z,4.17
2023-05-11T04:45:50.901Z,4.40
2023-05-11T04:48:23.074Z,4.20
2023-05-11T04:50:53.435Z,4.00
2023-05-11T04:53:21.934Z,4.40
2023-05-11T04:55:49.225Z,4.40
2023-05-11T04:58:16.123Z,4.13
2023-05-11T05:00:43.179Z,4.30
2023-05-11T05:03:10.103Z,4.43
2023-05-11T05:05:37.168Z,4.70
2023-05-11T05:08:04.027Z,3.73
2023-05-11T05:10:31.191Z,4.40
2023-05-11T05:12:58.197Z,4.13
2023-05-11T05:15:26.504Z,4.03
2023-05-11T05:17:53.772Z,4.00
2023-05-11T05:20:21.259Z,3.77
2023-05-11T05:22:48.103Z,3.97
2023-05-11T05:25:15.413Z,4.50
2023-05-11T05:27:42.166Z,3.80
2023-05-11T05:30:13.622Z,3.40
2023-05-11T05:32:40.459Z,4.53
2023-05-11T05:35:07.951Z,3.90
2023-05-11T05:37:34.781Z,4.00
2023-05-11T05:40:02.088Z,3.75
2023-05-11T05:42:30.983Z,3.50
2023-05-11T05:44:58.275Z,3.20
2023-05-11T05:47:25.489Z,4.03
2023-05-11T05:49:52.607Z,3.60
2023-05-11T05:52:19.457Z,3.33
2023-05-11T05:54:48.172Z,3.60
2023-05-11T05:57:15.759Z,3.43
2023-05-11T05:59:44.727Z,3.17
2023-05-11T06:02:13.551Z,3.10
2023-05-11T06:04:42.013Z,2.95
2023-05-11T06:07:09.443Z,3.10
2023-05-11T06:09:39.010Z,3.08
2023-05-11T06:12:06.565Z,3.22
2023-05-11T06:14:36.672Z,3.00
2023-05-11T06:17:03.672Z,3.10
2023-05-11T06:19:30.675Z,2.92
2023-05-11T06:21:58.715Z,2.65
2023-05-11T06:24:25.881Z,2.55
2023-05-11T06:26:52.695Z,2.92
2023-05-11T06:29:22.268Z,2.95
2023-05-11T06:31:53.015Z,3.00
2023-05-11T06:34:21.049Z,2.88
2023-05-11T06:36:49.080Z,2.63
2023-05-11T06:39:16.138Z,2.55
2023-05-11T06:41:43.155Z,2.97
2023-05-11T06:44:10.214Z,2.92
2023-05-11T06:46:38.698Z,2.47
2023-05-11T06:49:05.875Z,2.90
2023-05-11T06:51:32.733Z,3.25
2023-05-11T06:53:59.799Z,3.47
2023-05-11T06:56:27.356Z,2.90
2023-05-11T06:58:54.617Z,3.33
2023-05-11T07:01:21.412Z,2.90
2023-05-11T07:03:49.754Z,3.00
2023-05-11T07:06:17.677Z,2.70
2023-05-11T07:08:44.699Z,2.80
2023-05-11T07:11:12.998Z,2.85
2023-05-11T07:13:40.084Z,2.72
2023-05-11T07:16:07.002Z,3.28
2023-05-11T07:18:34.016Z,3.15
2023-05-11T07:21:00.748Z,2.88
2023-05-11T07:23:27.748Z,3.15
2023-05-11T07:25:57.388Z,2.78
2023-05-11T07:28:24.548Z,2.65
2023-05-11T07:30:51.399Z,2.70
2023-05-11T07:33:18.451Z,2.95
2023-05-11T07:35:45.797Z,2.67
2023-05-11T07:38:13.789Z,2.60
2023-05-11T07:40:40.561Z,2.53
2023-05-11T07:43:07.558Z,2.75
2023-05-11T07:45:34.326Z,2.33
2023-05-11T07:48:01.300Z,2.40
2023-05-11T07:50:28.208Z,2.85
2023-05-11T07:52:55.291Z,2.60
2023-05-11T07:55:25.027Z,2.60
2023-05-11T07:57:54.406Z,2.72
2023-05-11T08:00:21.901Z,3.05
2023-05-11T08:02:49.082Z,2.28
2023-05-11T08:05:17.537Z,2.22
2023-05-11T08:07:44.700Z,2.38
2023-05-11T08:10:12.033Z,2.15
2023-05-11T08:12:39.367Z,2.30
2023-05-11T08:15:06.466Z,2.33
2023-05-11T08:17:34.476Z,2.65
2023-05-11T08:20:01.446Z,2.35
2023-05-11T08:22:28.546Z,2.10
2023-05-11T08:24:55.230Z,2.30
2023-05-11T08:27:22.244Z,2.17
2023-05-11T08:29:48.984Z,2.25
2023-05-11T08:32:16.134Z,2.17
2023-05-11T08:34:43.586Z,2.90
2023-05-11T08:37:10.773Z,2.25
2023-05-11T08:39:46.129Z,2.25
2023-05-11T08:42:19.034Z,2.10
2023-05-11T08:44:48.060Z,2.15
2023-05-11T08:49:45.389Z,2.05
2023-05-11T08:52:14.014Z,2.10
2023-05-11T08:54:40.913Z,2.40
2023-05-11T08:57:08.693Z,2.10
2023-05-11T08:59:36.053Z,1.90
2023-05-11T09:02:04.542Z,2.15
2023-05-11T09:04:32.429Z,2.25
2023-05-11T09:06:59.943Z,2.15
2023-05-11T09:09:26.800Z,2.15
2023-05-11T09:11:54.228Z,1.98
2023-05-11T09:14:27.009Z,2.55
2023-05-11T09:16:54.507Z,2.88
2023-05-11T09:19:21.893Z,2.40
2023-05-11T09:21:48.998Z,2.05
2023-05-11T09:24:15.871Z,1.88
2023-05-11T09:26:43.128Z,1.92
2023-05-11T09:29:09.915Z,1.80
2023-05-11T09:31:47.486Z,2.53
2023-05-11T09:34:18.781Z,2.10
2023-05-11T09:36:48.891Z,1.80
2023-05-11T09:39:17.131Z,1.73
2023-05-11T09:42:22.011Z,2.40
2023-05-11T09:44:49.049Z,1.95
2023-05-11T09:47:17.825Z,2.05
2023-05-11T09:49:46.605Z,2.10
2023-05-11T09:52:15.900Z,1.80
2023-05-11T09:54:43.943Z,1.98
2023-05-11T09:57:31.191Z,2.17
2023-05-11T10:00:00.063Z,2.38
2023-05-11T10:02:32.171Z,2.00
2023-05-11T10:05:01.122Z,1.90
2023-05-11T10:07:36.046Z,2.67
2023-05-11T10:10:07.710Z,2.40
2023-05-11T10:12:38.296Z,1.88
2023-05-11T10:15:10.070Z,1.90
2023-05-11T10:17:37.847Z,1.80
2023-05-11T10:20:06.184Z,1.65
2023-05-11T10:22:33.706Z,2.25
2023-05-11T10:25:01.517Z,1.92
2023-05-11T10:27:28.775Z,1.98
2023-05-11T10:29:58.264Z,1.83
2023-05-11T10:32:25.426Z,1.75
2023-05-11T10:35:03.203Z,2.28
2023-05-11T10:37:30.708Z,2.03
2023-05-11T10:39:57.885Z,1.98
2023-05-11T10:43:02.834Z,1.70
2023-05-11T10:46:08.734Z,1.65
2023-05-11T10:48:57.822Z,1.90
2023-05-11T10:51:40.599Z,1.73
2023-05-11T10:54:34.359Z,1.80
2023-05-11T10:57:12.294Z,1.95
2023-05-11T10:59:45.598Z,1.92
2023-05-11T11:02:12.518Z,1.88
2023-05-11T11:04:44.439Z,2.42
2023-05-11T11:07:13.223Z,2.30
2023-05-11T11:10:09.959Z,1.70
2023-05-11T11:12:36.930Z,1.60
2023-05-11T11:15:06.542Z,2.45
2023-05-11T11:17:35.871Z,1.90
2023-05-11T11:20:07.771Z,2.53
2023-05-11T11:22:34.647Z,2.00
2023-05-11T11:25:05.052Z,1.88
2023-05-11T11:27:41.192Z,1.90
2023-05-11T11:30:28.808Z,1.83
2023-05-11T11:33:16.095Z,2.15
2023-05-11T11:35:45.931Z,2.10
2023-05-11T11:38:15.358Z,2.60
2023-05-11T11:43:19.916Z,2.00
2023-05-11T11:45:57.226Z,1.70
2023-05-11T11:48:42.431Z,1.90
2023-05-11T11:51:11.530Z,1.90
2023-05-11T11:53:38.515Z,1.80
2023-05-11T11:56:11.358Z,1.63
2023-05-11T11:58:40.914Z,2.22
2023-05-11T12:01:09.285Z,1.95
2023-05-11T12:03:37.395Z,1.83
2023-05-11T12:06:06.314Z,1.90
2023-05-11T12:08:33.038Z,1.48
2023-05-11T12:11:01.399Z,1.88
2023-05-11T12:13:28.861Z,2.00
2023-05-11T12:16:15.747Z,2.38
2023-05-11T12:18:52.527Z,2.22
2023-05-11T12:21:21.237Z,2.42
2023-05-11T12:24:02.075Z,2.28
2023-05-11T12:26:30.516Z,2.40
2023-05-11T12:29:24.252Z,1.80
2023-05-11T12:31:51.595Z,1.80
2023-05-11T12:34:20.953Z,2.25
2023-05-11T12:36:50.090Z,2.30
2023-05-11T12:39:18.933Z,1.58
2023-05-11T12:41:48.129Z,2.17
2023-05-11T12:44:17.203Z,2.13
2023-05-11T12:46:46.863Z,2.63
2023-05-11T12:51:59.959Z,1.73
2023-05-11T12:54:55.202Z,1.90
2023-05-11T12:57:31.049Z,1.60
2023-05-11T13:00:16.767Z,2.17
2023-05-11T13:02:54.922Z,1.88
2023-05-11T13:05:26.308Z,1.90
2023-05-11T13:08:05.778Z,2.47
2023-05-11T13:10:32.561Z,1.95
2023-05-11T13:12:59.628Z,2.10
2023-05-11T13:15:28.587Z,2.10
2023-05-11T13:18:01.258Z,2.00
2023-05-11T13:20:33.043Z,2.22
2023-05-11T13:23:08.332Z,1.88
2023-05-11T13:25:55.511Z,2.17
2023-05-11T13:28:24.384Z,2.08
2023-05-11T13:30:59.070Z,2.10
2023-05-11T13:33:26.192Z,1.90
2023-05-11T13:35:52.904Z,2.17
2023-05-11T13:38:19.954Z,2.00
2023-05-11T13:40:46.649Z,2.28
2023-05-11T13:43:13.734Z,2.03
2023-05-11T13:45:41.284Z,1.80
2023-05-11T13:48:08.677Z,1.98
2023-05-11T13:50:35.615Z,2.03
2023-05-11T13:53:02.948Z,1.80
2023-05-11T13:55:30.130Z,2.05
2023-05-11T13:57:58.346Z,1.85
2023-05-11T14:00:26.071Z,2.53
2023-05-11T14:02:53.035Z,1.80
2023-05-11T14:05:20.454Z,1.92
2023-05-11T14:07:48.607Z,2.00
2023-05-11T14:10:17.594Z,1.85
2023-05-11T14:12:45.374Z,2.22
2023-05-11T14:15:12.487Z,1.80
2023-05-11T14:17:41.621Z,1.67
2023-05-11T14:20:09.447Z,1.67
2023-05-11T14:22:36.417Z,2.28
2023-05-11T14:25:03.510Z,2.05
2023-05-11T14:27:30.272Z,1.85
2023-05-11T14:29:57.240Z,2.40
2023-05-11T14:32:24.162Z,1.95
2023-05-11T14:34:51.337Z,1.83
2023-05-11T14:37:18.113Z,2.75
2023-05-11T14:39:45.075Z,1.95
2023-05-11T14:42:11.818Z,1.98
2023-05-11T14:44:38.846Z,1.70
2023-05-11T14:47:05.995Z,2.00
2023-05-11T14:49:33.053Z,1.70
2023-05-11T14:51:59.889Z,2.13
2023-05-11T14:54:26.885Z,2.10
2023-05-11T14:56:56.229Z,2.10
2023-05-11T14:59:27.022Z,1.88
2023-05-11T15:01:53.915Z,1.80
2023-05-11T15:04:21.142Z,2.15
2023-05-11T15:06:48.482Z,2.58
2023-05-11T15:09:15.389Z,1.90
2023-05-11T15:11:42.411Z,2.10
2023-05-11T15:14:09.348Z,1.88
2023-05-11T15:16:37.361Z,2.00
2023-05-11T15:19:05.352Z,1.73
2023-05-11T15:21:32.582Z,1.83
2023-05-11T15:23:59.328Z,1.80
2023-05-11T15:26:26.371Z,2.17
2023-05-11T15:28:53.418Z,2.05
2023-05-11T15:31:20.840Z,2.10
2023-05-11T15:33:47.573Z,2.33
2023-05-11T15:36:15.491Z,2.00
2023-05-11T15:38:43.483Z,1.77
2023-05-11T15:41:10.509Z,1.77
2023-05-11T15:43:37.315Z,2.78
2023-05-11T15:46:05.693Z,4.63
2023-05-11T15:48:32.811Z,2.42
2023-05-11T15:51:01.001Z,2.40
2023-05-11T15:53:28.718Z,2.38
2023-05-11T15:55:56.663Z,2.33
2023-05-11T15:58:23.420Z,1.80
2023-05-11T16:00:50.665Z,1.90
2023-05-11T16:03:17.755Z,1.70
2023-05-11T16:05:45.487Z,1.80
2023-05-11T16:08:12.610Z,2.20
2023-05-11T16:10:40.044Z,2.22
2023-05-11T16:13:08.815Z,2.00
2023-05-11T16:15:35.952Z,1.90
2023-05-11T16:18:04.818Z,2.17
2023-05-11T16:20:32.605Z,2.38
2023-05-11T16:22:59.359Z,2.40
2023-05-11T16:25:26.475Z,2.58
2023-05-11T16:27:53.232Z,2.38
2023-05-11T16:30:24.971Z,2.00
2023-05-11T16:32:53.596Z,2.42
2023-05-11T16:35:20.978Z,2.05
2023-05-11T16:37:48.303Z,2.03
2023-05-11T16:40:19.150Z,2.00
2023-05-11T16:42:47.382Z,2.03
2023-05-11T16:45:15.221Z,1.95
2023-05-11T16:47:44.685Z,1.75
2023-05-11T16:50:14.714Z,2.00
2023-05-11T16:52:42.472Z,2.25
2023-05-11T16:55:10.246Z,1.92
2023-05-11T16:57:37.081Z,2.13
2023-05-11T17:00:04.765Z,1.90
2023-05-11T17:02:31.693Z,2.20
2023-05-11T17:04:58.988Z,2.08
2023-05-11T17:07:26.353Z,1.88
2023-05-11T17:09:56.951Z,2.13
2023-05-11T17:12:24.159Z,2.03
2023-05-11T17:14:51.292Z,2.03
2023-05-11T17:17:18.176Z,2.20
2023-05-11T17:19:45.608Z,1.67
2023-05-11T17:22:12.601Z,2.10
2023-05-11T17:24:39.775Z,2.00
2023-05-11T17:27:06.999Z,2.78
2023-05-11T17:29:34.068Z,2.38
2023-05-11T17:32:01.166Z,2.00
2023-05-11T17:34:28.878Z,1.80
2023-05-11T17:36:56.733Z,2.20
2023-05-11T17:39:23.801Z,2.88
2023-05-11T17:41:50.529Z,2.08
2023-05-11T17:44:17.705Z,2.33
2023-05-11T17:46:44.503Z,2.47
2023-05-11T17:49:11.537Z,2.17
2023-05-11T17:51:38.312Z,2.10
2023-05-11T17:54:05.382Z,3.08
2023-05-11T17:56:32.773Z,3.03
2023-05-11T17:58:59.804Z,2.63
2023-05-11T18:01:27.660Z,3.28
2023-05-11T18:03:55.037Z,3.38
2023-05-11T18:06:21.961Z,3.85
2023-05-11T18:08:49.140Z,3.95
2023-05-11T18:11:15.875Z,3.30
2023-05-11T18:13:42.820Z,2.75
2023-05-11T18:16:09.695Z,3.05
2023-05-11T18:18:36.958Z,3.25
2023-05-11T18:21:07.422Z,3.00
2023-05-11T18:23:34.646Z,3.08
2023-05-11T18:26:01.477Z,3.15
2023-05-11T18:28:28.522Z,3.70
2023-05-11T18:30:55.780Z,6.25
2023-05-11T18:33:23.543Z,5.97
2023-05-11T18:35:51.405Z,6.40
2023-05-11T18:38:18.528Z,5.70
2023-05-11T18:40:45.395Z,5.65
2023-05-11T18:43:13.695Z,5.80
2023-05-11T18:45:41.445Z,9.30
2023-05-11T18:48:08.637Z,9.90
2023-05-11T18:50:35.771Z,14.80
2023-05-11T18:53:02.831Z,18.05
2023-05-11T18:55:31.436Z,21.20
2023-05-11T18:58:03.084Z,19.42
2023-05-11T19:00:31.150Z,25.90
2023-05-11T19:02:58.260Z,20.70
2023-05-11T19:05:25.093Z,22.35
2023-05-11T19:07:52.261Z,17.27
2023-05-11T19:10:19.248Z,13.48
2023-05-11T19:12:46.408Z,14.25
2023-05-11T19:15:13.183Z,12.75
2023-05-11T19:17:40.388Z,12.50
2023-05-11T19:20:08.318Z,26.35
2023-05-11T19:22:35.867Z,38.60
2023-05-11T19:25:02.582Z,30.90
2023-05-11T19:27:29.647Z,25.35
2023-05-11T19:29:56.493Z,35.15
2023-05-11T19:32:23.600Z,40.70
2023-05-11T19:34:50.383Z,24.98
2023-05-11T19:37:17.478Z,20.92
2023-05-11T19:39:44.197Z,16.73
2023-05-11T19:42:11.699Z,20.83
2023-05-11T19:44:43.384Z,16.77
2023-05-11T19:47:10.674Z,12.88
2023-05-11T19:49:37.569Z,11.77
2023-05-11T19:52:04.846Z,10.65
2023-05-11T19:54:32.347Z,9.95
2023-05-11T19:57:00.265Z,12.40
2023-05-11T19:59:32.560Z,13.57
2023-05-11T20:02:00.967Z,11.77
2023-05-11T20:04:31.087Z,9.57
2023-05-11T20:06:58.137Z,9.30
2023-05-11T20:09:25.275Z,8.95
2023-05-11T20:11:52.326Z,8.77
2023-05-11T20:14:19.192Z,7.32
2023-05-11T20:16:46.295Z,5.60
2023-05-11T20:19:13.211Z,6.80
2023-05-11T20:21:40.328Z,6.97
2023-05-11T20:24:07.306Z,9.73
2023-05-11T20:26:34.350Z,11.95
2023-05-11T20:29:01.169Z,33.10
2023-05-11T20:31:28.227Z,19.08
2023-05-11T20:36:26.644Z,26.02
2023-05-11T20:38:54.253Z,21.03
2023-05-11T20:41:22.158Z,14.25
2023-05-11T20:43:48.892Z,14.05
2023-05-11T20:46:16.058Z,13.50
2023-05-11T20:48:45.630Z,13.52
2023-05-11T20:51:15.518Z,12.90
2023-05-11T20:53:42.249Z,10.25
2023-05-11T20:56:12.554Z,10.80
2023-05-11T20:58:39.394Z,10.45
2023-05-11T21:01:06.654Z,11.88
2023-05-11T21:03:33.513Z,15.07
2023-05-11T21:06:00.644Z,12.80
2023-05-11T21:08:27.411Z,12.47
2023-05-11T21:10:54.808Z,14.70
2023-05-11T21:13:22.014Z,15.23
2023-05-11T21:15:48.974Z,18.23
2023-05-11T21:18:15.787Z,16.35
2023-05-11T21:20:43.345Z,16.73
2023-05-11T21:23:10.416Z,12.85
2023-05-11T21:25:37.568Z,14.65
2023-05-11T21:28:04.861Z,16.27
2023-05-11T21:30:31.999Z,16.60
2023-05-11T21:32:58.828Z,22.73
2023-05-11T21:35:26.215Z,22.97
2023-05-11T21:37:52.887Z,26.97
2023-05-11T21:40:20.161Z,29.10
2023-05-11T21:42:47.143Z,27.87
2023-05-11T21:45:14.225Z,25.15
2023-05-11T21:47:41.143Z,24.50
2023-05-11T21:50:08.795Z,18.10
2023-05-11T21:52:36.864Z,11.00
2023-05-11T21:55:04.830Z,11.43
2023-05-11T21:57:31.730Z,10.70
2023-05-11T21:59:59.259Z,9.73
2023-05-11T22:02:27.224Z,13.63
2023-05-11T22:04:54.386Z,10.63
2023-05-11T22:07:22.867Z,8.67
2023-05-11T22:09:49.800Z,9.50
2023-05-11T22:12:16.943Z,8.87
2023-05-11T22:14:43.988Z,9.30
2023-05-11T22:17:11.056Z,9.10
2023-05-11T22:19:38.123Z,8.47
2023-05-11T22:22:05.025Z,9.13
2023-05-11T22:24:31.986Z,8.53
2023-05-11T22:26:59.391Z,8.47
2023-05-11T22:29:26.397Z,6.70
2023-05-11T22:31:53.279Z,7.13
2023-05-11T22:34:23.694Z,7.10
2023-05-11T22:36:50.437Z,7.13
2023-05-11T22:39:17.489Z,7.13
2023-05-11T22:41:44.381Z,6.93
2023-05-11T22:44:11.400Z,6.97
2023-05-11T22:46:38.193Z,6.67
2023-05-11T22:49:05.153Z,6.30
2023-05-11T22:51:31.916Z,6.23
2023-05-11T22:53:58.900Z,6.17
2023-05-11T22:56:25.596Z,7.03
2023-05-11T22:58:54.887Z,6.97
2023-05-11T23:01:21.668Z,7.33
2023-05-11T23:03:48.706Z,7.40
2023-05-11T23:06:15.467Z,7.20
2023-05-11T23:08:42.932Z,7.67
2023-05-11T23:11:09.817Z,10.23
2023-05-11T23:13:37.383Z,9.33
2023-05-11T23:16:04.635Z,9.37
2023-05-11T23:18:32.049Z,8.30
2023-05-11T23:20:59.900Z,8.67
2023-05-11T23:23:27.504Z,8.87
2023-05-11T23:25:54.370Z,9.37
2023-05-11T23:28:21.325Z,8.27
2023-05-11T23:30:48.083Z,8.90
2023-05-11T23:33:15.193Z,8.07
2023-05-11T23:35:42.045Z,8.10
2023-05-11T23:38:09.529Z,9.77
2023-05-11T23:40:36.344Z,8.53
2023-05-11T23:43:03.361Z,8.07
2023-05-11T23:45:30.740Z,8.37
2023-05-11T23:47:57.853Z,9.00
2023-05-11T23:50:24.608Z,10.40
2023-05-11T23:52:51.662Z,9.70
2023-05-11T23:55:18.499Z,8.90
2023-05-11T23:57:45.596Z,9.13
